Time;durP1;ratioP1;P1;durP2;ratioP2;P2;SDS_P1;SDS_P2;PMS_P1;PMS_P2;Temp;Humidity;BMP_temperature;BMP_pressure;BME280_temperature;BME280_humidity;BME280_pressure;Samples;Min_cycle;Max_cycle;Signal;HPM_P1;HPM_P2
2022/03/27 00:00:06;;;;;;;7.90;7.13;;;;;;;10.47;61.79;103400.94;5206823;28;20405;-57
2022/03/27 00:02:39;;;;;;;9.75;8.13;;;;;;;10.24;61.96;103373.13;5199510;28;20420;-58
2022/03/27 00:05:12;;;;;;;8.93;7.40;;;;;;;10.51;61.68;103415.69;5193682;28;20508;-58
2022/03/27 00:07:45;;;;;;;8.65;7.72;;;;;;;10.52;61.86;103414.72;5192493;28;20427;-57
2022/03/27 00:10:20;;;;;;;8.90;8.10;;;;;;;10.53;61.88;103411.16;5193574;28;20529;-57
2022/03/27 00:12:52;;;;;;;10.50;8.13;;;;;;;10.37;62.12;103411.19;5206327;28;20511;-57
2022/03/27 00:15:24;;;;;;;9.85;8.50;;;;;;;10.43;62.25;103409.97;5198597;28;20509;-56
2022/03/27 00:17:57;;;;;;;9.20;8.10;;;;;;;10.40;61.94;103404.84;5194409;28;20435;-56
2022/03/27 00:20:30;;;;;;;8.30;7.38;;;;;;;10.39;62.25;103408.44;5199680;28;20441;-57
2022/03/27 00:23:02;;;;;;;9.63;8.73;;;;;;;10.33;62.30;103409.63;5187536;28;20421;-58
2022/03/27 00:25:36;;;;;;;10.05;9.02;;;;;;;10.24;62.26;103401.34;5211558;28;20421;-56
2022/03/27 00:28:08;;;;;;;10.43;8.75;;;;;;;10.20;62.49;103403.28;5197421;28;20425;-57
2022/03/27 00:30:41;;;;;;;10.07;8.95;;;;;;;10.15;62.30;103400.88;5205984;28;20495;-56
2022/03/27 00:33:18;;;;;;;9.60;8.60;;;;;;;10.13;62.41;103410.72;5215391;28;20491;-55
2022/03/27 00:35:51;;;;;;;9.25;8.20;;;;;;;10.06;62.57;103406.66;5211657;28;20903;-55
2022/03/27 00:38:23;;;;;;;10.47;9.00;;;;;;;10.04;62.56;103411.22;5212538;28;20557;-56
2022/03/27 00:40:58;;;;;;;10.15;8.80;;;;;;;9.64;62.38;103342.09;5200031;28;20914;-56
2022/03/27 00:43:30;;;;;;;10.45;8.98;;;;;;;9.99;62.29;103405.31;5198976;28;20420;-55
2022/03/27 00:46:03;;;;;;;10.57;9.15;;;;;;;9.67;62.63;103383.28;5200732;28;20504;-60
2022/03/27 00:48:36;;;;;;;11.98;10.18;;;;;;;9.59;62.70;103367.84;5198572;28;20887;-56
2022/03/27 00:51:08;;;;;;;13.50;11.05;;;;;;;9.84;62.89;103419.34;5195710;28;20559;-57
2022/03/27 00:53:41;;;;;;;11.90;10.00;;;;;;;9.80;62.83;103407.25;5201902;28;20433;-55
2022/03/27 00:56:15;;;;;;;12.05;10.70;;;;;;;9.79;62.68;103405.53;5197796;28;20768;-56
2022/03/27 00:58:48;;;;;;;14.07;11.82;;;;;;;9.42;62.79;103367.91;5198503;28;20846;-56
2022/03/27 01:01:24;;;;;;;13.38;10.85;;;;;;;9.73;62.64;103404.09;5205714;28;20516;-56
2022/03/27 01:03:58;;;;;;;15.77;12.02;;;;;;;9.68;62.73;103379.72;5205192;28;20429;-55
2022/03/27 01:06:33;;;;;;;16.20;12.23;;;;;;;9.87;62.67;103400.69;5198271;28;20437;-55
2022/03/27 01:12:14;;;;;;;16.30;12.90;;;;;;;9.94;62.71;103402.09;5204616;28;20413;-56
2022/03/27 01:14:47;;;;;;;14.70;12.65;;;;;;;9.81;62.61;103379.91;5211504;28;20467;-55
2022/03/27 01:17:23;;;;;;;16.02;13.05;;;;;;;9.88;62.61;103407.69;5207530;28;20508;-56
2022/03/27 01:19:57;;;;;;;16.35;12.27;;;;;;;9.84;62.75;103395.56;5203154;28;20426;-56
2022/03/27 01:22:32;;;;;;;17.42;12.98;;;;;;;9.88;62.65;103398.00;5200246;28;20798;-56
2022/03/27 01:25:05;;;;;;;16.60;13.70;;;;;;;9.89;62.65;103393.56;5195758;28;20406;-57
2022/03/27 01:27:38;;;;;;;18.00;13.68;;;;;;;9.90;62.62;103382.03;5203446;28;20415;-57
2022/03/27 01:30:12;;;;;;;18.77;15.50;;;;;;;9.96;62.66;103394.91;5194375;28;20779;-57
2022/03/27 01:32:45;;;;;;;18.00;13.65;;;;;;;9.91;62.98;103396.97;5194968;28;20445;-59
2022/03/27 01:35:19;;;;;;;17.23;13.63;;;;;;;9.78;62.86;103380.06;5200558;28;20889;-57
2022/03/27 01:37:53;;;;;;;17.23;13.80;;;;;;;9.83;62.87;103385.97;5201982;28;20489;-57
2022/03/27 01:40:25;;;;;;;17.13;14.30;;;;;;;9.70;62.85;103376.06;5197613;28;20943;-58
2022/03/27 01:42:58;;;;;;;15.27;13.05;;;;;;;9.88;62.74;103399.78;5219019;28;20415;-57
2022/03/27 01:45:31;;;;;;;15.83;12.73;;;;;;;9.85;62.83;103389.38;5193256;28;20903;-57
2022/03/27 01:48:05;;;;;;;17.15;14.15;;;;;;;9.76;62.77;103374.03;5196134;28;20808;-57
2022/03/27 01:50:37;;;;;;;13.30;11.10;;;;;;;9.81;62.85;103390.47;5215287;28;20502;-58
2022/03/27 01:53:11;;;;;;;12.30;10.73;;;;;;;9.74;63.14;103394.38;5220302;28;20511;-55
2022/03/27 01:55:46;;;;;;;13.02;11.35;;;;;;;9.63;63.16;103382.63;5213582;28;20488;-55
2022/03/27 01:58:19;;;;;;;13.45;11.25;;;;;;;9.67;63.22;103394.69;5218040;28;20947;-57
2022/03/27 02:00:53;;;;;;;13.43;11.50;;;;;;;9.62;63.11;103380.03;5215361;28;20427;-56
2022/03/27 02:03:28;;;;;;;12.82;10.85;;;;;;;9.60;63.20;103393.31;5206281;28;20530;-56
2022/03/27 02:06:05;;;;;;;13.20;10.38;;;;;;;9.23;63.41;103345.13;5197827;28;20431;-55
2022/03/27 02:08:38;;;;;;;12.35;10.40;;;;;;;9.52;63.34;103390.22;5192506;28;20440;-56
2022/03/27 02:11:13;;;;;;;11.52;9.68;;;;;;;9.56;63.07;103391.75;5198603;28;20508;-58
2022/03/27 02:13:45;;;;;;;11.25;9.48;;;;;;;9.44;63.22;103371.31;5195266;28;20502;-56
2022/03/27 02:16:18;;;;;;;10.85;9.60;;;;;;;9.56;63.28;103393.56;5216883;28;20426;-57
2022/03/27 02:18:51;;;;;;;11.45;10.25;;;;;;;9.47;63.23;103371.13;5217527;28;20401;-57
2022/03/27 02:21:26;;;;;;;12.70;11.02;;;;;;;9.49;63.14;103379.00;5223244;28;20444;-56
2022/03/27 02:24:03;;;;;;;12.13;10.77;;;;;;;9.54;63.23;103393.66;5216484;28;20411;-56
2022/03/27 02:26:36;;;;;;;13.35;11.13;;;;;;;9.59;63.29;103391.59;5195633;28;20901;-59
2022/03/27 02:29:08;;;;;;;14.70;11.52;;;;;;;9.54;63.23;103380.47;5194579;28;20460;-53
2022/03/27 02:31:41;;;;;;;12.27;10.32;;;;;;;9.51;63.17;103382.38;5193262;28;20421;-56
2022/03/27 02:34:18;;;;;;;13.93;12.03;;;;;;;9.49;63.50;103382.47;5198870;28;20421;-56
2022/03/27 02:36:50;;;;;;;15.05;11.38;;;;;;;9.50;63.23;103376.25;5192846;28;20417;-58
2022/03/27 02:39:24;;;;;;;14.23;12.05;;;;;;;9.44;63.30;103366.88;5193801;28;20494;-58
2022/03/27 02:41:56;;;;;;;12.30;10.27;;;;;;;9.43;63.31;103374.88;5187586;28;20419;-56
2022/03/27 02:44:29;;;;;;;11.52;10.27;;;;;;;9.39;63.49;103374.19;5202375;28;20889;-58
2022/03/27 02:47:02;;;;;;;13.90;10.73;;;;;;;9.24;63.36;103348.63;5202102;28;20975;-57
2022/03/27 02:49:34;;;;;;;13.63;10.93;;;;;;;9.35;63.28;103369.13;5213015;28;20900;-59
2022/03/27 02:52:07;;;;;;;12.63;10.77;;;;;;;9.30;63.62;103373.81;5193641;28;20466;-55
2022/03/27 02:54:41;;;;;;;11.82;9.88;;;;;;;9.24;63.50;103367.91;5196600;28;20501;-55
2022/03/27 02:57:15;;;;;;;11.52;9.43;;;;;;;9.28;63.61;103378.31;5191540;28;20501;-56
2022/03/27 02:59:48;;;;;;;11.88;9.68;;;;;;;9.29;63.55;103374.72;5195474;28;20424;-55
2022/03/27 03:02:21;;;;;;;10.97;9.60;;;;;;;9.21;63.54;103383.91;5197093;28;20504;-53
2022/03/27 03:04:55;;;;;;;11.07;9.32;;;;;;;9.11;63.85;103369.50;5196408;28;20486;-57
2022/03/27 03:07:28;;;;;;;12.20;9.93;;;;;;;9.20;63.46;103382.19;5202231;28;20414;-55
2022/03/27 03:10:04;;;;;;;12.40;10.30;;;;;;;9.17;63.45;103352.50;5195040;28;20506;-56
2022/03/27 03:12:37;;;;;;;10.30;9.10;;;;;;;9.16;63.48;103375.34;5192110;28;20407;-56
2022/03/27 03:15:10;;;;;;;10.38;8.82;;;;;;;9.12;63.83;103376.47;5198838;28;20488;-56
2022/03/27 03:17:43;;;;;;;11.85;9.82;;;;;;;9.02;63.83;103367.31;5191050;28;20875;-57
2022/03/27 03:20:16;;;;;;;10.77;9.20;;;;;;;8.98;63.83;103353.44;5194912;28;20497;-56
2022/03/27 03:22:50;;;;;;;11.88;9.55;;;;;;;9.05;63.75;103367.16;5188421;28;20513;-56
2022/03/27 03:25:23;;;;;;;12.82;10.50;;;;;;;9.00;63.80;103362.09;5211337;28;21457;-58
2022/03/27 03:27:56;;;;;;;11.37;10.17;;;;;;;8.98;63.61;103363.13;5203994;28;20498;-53
2022/03/27 03:30:29;;;;;;;11.68;10.05;;;;;;;8.97;63.90;103358.78;5210917;28;20467;-57
2022/03/27 03:33:01;;;;;;;11.77;10.40;;;;;;;9.00;63.78;103361.25;5213822;28;20809;-55
2022/03/27 03:35:34;;;;;;;12.38;9.95;;;;;;;8.94;63.72;103365.06;5199923;28;20897;-59
2022/03/27 03:38:07;;;;;;;10.63;9.18;;;;;;;8.84;63.90;103355.06;5196833;28;20465;-56
2022/03/27 03:40:41;;;;;;;9.43;8.00;;;;;;;8.83;64.04;103363.91;5199917;28;20413;-57
2022/03/27 03:43:14;;;;;;;11.23;9.30;;;;;;;8.78;64.01;103354.44;5195008;28;20433;-55
2022/03/27 03:45:47;;;;;;;10.17;8.43;;;;;;;8.71;64.07;103358.31;5198567;28;20430;-54
2022/03/27 03:48:20;;;;;;;10.25;9.15;;;;;;;8.57;64.10;103341.47;5197323;28;20407;-56
2022/03/27 03:50:53;;;;;;;11.00;9.32;;;;;;;8.71;64.00;103366.22;5194833;28;21551;-58
2022/03/27 03:53:26;;;;;;;12.10;9.05;;;;;;;8.69;64.23;103365.41;5197650;28;20413;-55
2022/03/27 03:56:01;;;;;;;12.35;9.13;;;;;;;8.75;64.00;103366.91;5192637;28;20411;-57
2022/03/27 03:58:33;;;;;;;10.55;9.15;;;;;;;8.69;63.96;103354.88;5190444;28;20403;-59
2022/03/27 04:01:06;;;;;;;11.73;10.00;;;;;;;8.56;64.24;103358.22;5195805;28;20411;-52
2022/03/27 04:03:38;;;;;;;11.35;9.68;;;;;;;8.47;64.06;103360.34;5195164;28;20763;-57
2022/03/27 04:06:12;;;;;;;10.38;9.27;;;;;;;8.51;64.47;103359.25;5199077;28;20970;-56
2022/03/27 04:08:45;;;;;;;10.23;8.35;;;;;;;8.49;64.08;103353.25;5208788;28;20420;-57
2022/03/27 04:11:19;;;;;;;10.88;8.38;;;;;;;8.58;64.01;103357.22;5221081;28;20522;-55
2022/03/27 04:13:51;;;;;;;8.43;7.60;;;;;;;8.58;64.06;103367.75;5231490;28;20599;-57
2022/03/27 04:16:24;;;;;;;12.52;9.95;;;;;;;8.53;64.08;103356.56;5229402;28;20426;-56
2022/03/27 04:18:56;;;;;;;9.93;8.35;;;;;;;8.46;64.11;103357.81;5217212;28;20908;-55
2022/03/27 04:21:29;;;;;;;9.25;8.25;;;;;;;8.36;64.01;103348.59;5213455;28;20799;-56
2022/03/27 04:24:01;;;;;;;9.45;8.27;;;;;;;8.28;64.27;103347.19;5217040;28;20515;-56
2022/03/27 04:26:36;;;;;;;9.80;8.70;;;;;;;8.38;64.10;103357.28;5201851;28;20571;-59
2022/03/27 04:29:10;;;;;;;10.50;9.40;;;;;;;8.45;64.08;103363.97;5203266;28;20915;-56
2022/03/27 04:31:43;;;;;;;12.20;9.75;;;;;;;8.43;63.87;103360.59;5197633;28;20990;-55
2022/03/27 04:34:18;;;;;;;11.32;9.95;;;;;;;8.36;64.13;103356.50;5207358;28;20429;-57
2022/03/27 04:36:50;;;;;;;10.93;9.73;;;;;;;8.20;64.13;103349.31;5196145;28;20822;-57
2022/03/27 04:39:23;;;;;;;12.98;9.15;;;;;;;8.24;64.01;103350.06;5205366;28;21730;-56
2022/03/27 04:41:57;;;;;;;10.82;8.85;;;;;;;8.15;63.73;103350.50;5202854;28;20787;-56
2022/03/27 04:44:30;;;;;;;13.97;10.80;;;;;;;8.18;64.01;103355.59;5203913;28;20496;-56
2022/03/27 04:47:02;;;;;;;11.80;9.88;;;;;;;8.12;63.76;103348.00;5196415;28;20460;-56
2022/03/27 04:49:35;;;;;;;13.98;10.20;;;;;;;8.18;63.68;103359.09;5207312;28;20472;-59
2022/03/27 04:52:08;;;;;;;14.82;10.52;;;;;;;8.22;63.46;103363.28;5187195;28;20432;-55
2022/03/27 04:54:41;;;;;;;15.37;11.07;;;;;;;8.24;63.44;103361.44;5198815;28;20492;-55
2022/03/27 04:57:15;;;;;;;15.77;11.10;;;;;;;8.05;63.58;103371.09;5201956;28;20432;-57
2022/03/27 04:59:48;;;;;;;15.77;11.07;;;;;;;8.24;63.58;103364.06;5201162;28;20801;-57
2022/03/27 05:02:22;;;;;;;15.90;11.55;;;;;;;8.07;63.47;103362.22;5202473;28;20417;-54
2022/03/27 05:04:54;;;;;;;20.65;13.45;;;;;;;8.04;63.55;103366.78;5200198;28;20417;-53
2022/03/27 05:07:27;;;;;;;21.35;13.18;;;;;;;7.81;63.71;103323.13;5207474;28;21706;-57
2022/03/27 05:09:59;;;;;;;19.38;12.82;;;;;;;8.03;63.60;103359.81;5198975;28;20496;-55
2022/03/27 05:12:33;;;;;;;23.42;14.02;;;;;;;7.86;63.48;103350.88;5211705;28;20407;-57
2022/03/27 05:15:09;;;;;;;19.35;13.05;;;;;;;8.01;63.39;103351.13;5207124;28;20972;-58
2022/03/27 05:17:53;;;;;;;19.73;13.20;;;;;;;7.99;63.31;103360.84;5206000;28;20413;-57
2022/03/27 05:20:45;;;;;;;19.33;14.55;;;;;;;7.95;63.38;103359.28;5200745;28;20507;-55
2022/03/27 05:23:17;;;;;;;20.70;15.07;;;;;;;7.89;63.66;103364.84;5223231;28;20422;-53
2022/03/27 05:25:52;;;;;;;22.65;14.35;;;;;;;7.80;63.60;103367.00;5210765;28;20524;-57
2022/03/27 05:28:25;;;;;;;25.65;14.57;;;;;;;7.80;63.71;103355.59;5212619;28;20419;-56
2022/03/27 05:30:58;;;;;;;23.45;15.10;;;;;;;7.72;63.51;103347.22;5220837;28;20879;-55
2022/03/27 05:33:31;;;;;;;20.48;14.73;;;;;;;7.76;63.58;103362.75;5196116;28;20444;-57
2022/03/27 05:36:04;;;;;;;19.63;13.85;;;;;;;7.68;63.49;103341.25;5191525;28;20506;-57
2022/03/27 05:38:37;;;;;;;23.20;14.38;;;;;;;7.78;63.61;103362.72;5202637;28;20446;-55
2022/03/27 05:41:10;;;;;;;24.10;15.10;;;;;;;7.62;63.50;103338.88;5210311;28;20974;-57
2022/03/27 05:43:44;;;;;;;27.33;15.65;;;;;;;7.78;63.29;103362.72;5202590;28;20410;-56
2022/03/27 05:46:17;;;;;;;23.50;14.02;;;;;;;7.76;63.36;103357.50;5195730;28;20425;-57
2022/03/27 05:48:49;;;;;;;28.85;13.35;;;;;;;7.71;63.62;103359.50;5205939;28;20446;-53
2022/03/27 05:51:22;;;;;;;24.25;15.63;;;;;;;7.69;63.48;103363.97;5206882;28;20516;-54
2022/03/27 05:53:54;;;;;;;25.35;14.32;;;;;;;7.67;63.50;103357.91;5194452;28;20776;-57
2022/03/27 05:56:27;;;;;;;27.73;14.27;;;;;;;7.57;63.53;103332.97;5193720;28;20437;-55
2022/03/27 05:59:01;;;;;;;25.45;14.60;;;;;;;7.75;63.46;103368.97;5202741;28;20493;-56
2022/03/27 06:01:33;;;;;;;26.40;15.05;;;;;;;7.74;63.41;103366.38;5189762;28;20410;-53
2022/03/27 06:04:06;;;;;;;27.27;14.80;;;;;;;7.71;63.34;103359.50;5194413;28;20927;-55
2022/03/27 06:06:38;;;;;;;22.33;14.23;;;;;;;7.84;63.33;103378.22;5195315;28;20498;-55
2022/03/27 06:09:11;;;;;;;22.80;14.25;;;;;;;7.89;63.60;103375.38;5196490;28;20508;-55
2022/03/27 06:11:43;;;;;;;25.33;13.05;;;;;;;7.84;63.50;103363.28;5195273;28;20838;-55
2022/03/27 06:14:18;;;;;;;26.67;14.47;;;;;;;7.98;63.57;103393.38;5201754;28;20513;-53
2022/03/27 06:16:51;;;;;;;26.23;13.65;;;;;;;7.99;63.27;103388.06;5189386;28;20450;-56
2022/03/27 06:19:24;;;;;;;23.83;13.93;;;;;;;7.96;63.64;103382.94;5214437;28;21007;-58
2022/03/27 06:21:56;;;;;;;24.57;14.17;;;;;;;8.00;63.46;103383.63;5219264;28;20410;-54
2022/03/27 06:24:29;;;;;;;25.98;14.95;;;;;;;7.96;63.74;103371.53;5212502;28;20433;-55
2022/03/27 06:27:01;;;;;;;22.42;13.77;;;;;;;8.01;63.53;103380.06;5223086;28;20500;-54
2022/03/27 06:29:35;;;;;;;23.73;13.85;;;;;;;7.96;63.46;103367.13;5191792;28;20489;-57
2022/03/27 06:32:09;;;;;;;26.58;15.15;;;;;;;8.11;63.60;103378.72;5202034;28;20861;-52
2022/03/27 06:34:42;;;;;;;26.02;15.13;;;;;;;8.01;63.56;103359.00;5211347;28;20431;-54
2022/03/27 06:37:16;;;;;;;25.50;14.77;;;;;;;8.26;63.48;103385.88;5211137;28;20571;-53
2022/03/27 06:39:49;;;;;;;25.55;14.02;;;;;;;8.42;63.28;103390.47;5208854;28;20927;-56
2022/03/27 06:42:22;;;;;;;20.67;13.57;;;;;;;8.55;63.20;103386.34;5199942;28;20822;-59
2022/03/27 06:44:56;;;;;;;24.90;14.35;;;;;;;8.60;63.30;103376.41;5215861;28;20502;-55
2022/03/27 06:47:29;;;;;;;23.35;12.68;;;;;;;9.26;62.88;103383.69;5208333;28;20543;-56
2022/03/27 06:50:04;;;;;;;19.60;12.95;;;;;;;9.96;62.40;103376.44;5191795;28;20486;-56
2022/03/27 06:52:37;;;;;;;20.13;11.25;;;;;;;11.49;61.40;103372.91;5200424;28;21113;-52
2022/03/27 06:55:11;;;;;;;19.17;9.88;;;;;;;12.82;60.19;103366.22;5195956;28;20929;-53
2022/03/27 06:57:44;;;;;;;16.10;8.63;;;;;;;13.93;59.30;103372.69;5200904;28;20417;-50
2022/03/27 07:03:10;;;;;;;13.60;7.30;;;;;;;14.58;59.14;103368.88;5203702;28;20416;-52
2022/03/27 07:05:44;;;;;;;13.47;7.87;;;;;;;14.98;58.76;103374.69;5197275;28;20436;-50
2022/03/27 07:08:19;;;;;;;18.02;8.15;;;;;;;15.26;58.16;103369.09;5200415;28;20419;-54
2022/03/27 07:10:52;;;;;;;15.20;7.70;;;;;;;15.47;57.59;103367.41;5196329;28;20419;-54
2022/03/27 07:13:25;;;;;;;12.90;6.77;;;;;;;16.07;56.58;103368.88;5196955;28;20496;-53
2022/03/27 07:15:59;;;;;;;11.68;6.57;;;;;;;16.85;55.41;103374.06;5205083;28;20948;-54
2022/03/27 07:18:31;;;;;;;14.23;6.72;;;;;;;17.56;54.37;103371.53;5198294;28;20496;-53
2022/03/27 07:21:04;;;;;;;14.52;6.60;;;;;;;18.11;53.48;103366.66;5194285;28;20403;-57
2022/03/27 07:23:36;;;;;;;17.45;7.38;;;;;;;18.93;52.39;103363.63;5218933;28;20413;-51
2022/03/27 07:26:24;;;;;;;12.43;5.82;;;;;;;19.92;50.73;103361.31;5210466;28;20414;-51
2022/03/27 07:28:56;;;;;;;10.87;5.43;;;;;;;20.62;49.47;103358.00;5215158;28;20496;-50
2022/03/27 07:31:30;;;;;;;10.07;5.35;;;;;;;21.35;48.31;103355.84;5219240;28;20470;-50
2022/03/27 07:34:03;;;;;;;14.57;5.65;;;;;;;22.24;47.17;103367.94;5207947;28;20779;-52
2022/03/27 07:36:36;;;;;;;12.57;5.20;;;;;;;22.88;45.96;103372.66;5204115;28;20471;-55
2022/03/27 07:39:09;;;;;;;12.17;5.37;;;;;;;23.03;45.16;103368.31;5207213;28;20491;-53
2022/03/27 07:41:41;;;;;;;14.23;5.32;;;;;;;22.85;45.26;103363.06;5202674;28;20416;-53
2022/03/27 07:44:14;;;;;;;13.73;6.03;;;;;;;22.59;45.05;103370.50;5205892;28;20456;-54
2022/03/27 07:46:50;;;;;;;16.90;5.25;;;;;;;22.62;44.29;103364.78;5191944;28;20506;-57
2022/03/27 07:49:23;;;;;;;12.15;5.38;;;;;;;22.60;43.99;103367.63;5204843;28;20416;-56
2022/03/27 07:51:56;;;;;;;12.63;5.70;;;;;;;22.69;43.37;103366.63;5212051;28;20426;-55
2022/03/27 07:54:28;;;;;;;12.25;4.65;;;;;;;22.78;42.89;103373.69;5222545;28;21009;-53
2022/03/27 07:57:01;;;;;;;9.30;4.22;;;;;;;22.97;42.21;103364.44;5207284;28;20504;-55
2022/03/27 07:59:36;;;;;;;10.43;4.32;;;;;;;22.81;41.80;103369.81;5227970;28;20401;-57
2022/03/27 08:02:10;;;;;;;11.13;4.88;;;;;;;22.76;41.46;103364.94;5203459;28;20413;-55
2022/03/27 08:04:43;;;;;;;13.45;4.97;;;;;;;22.89;40.77;103367.13;5209716;28;20416;-54
2022/03/27 08:07:18;;;;;;;8.80;4.18;;;;;;;23.05;40.57;103371.69;5191820;28;20509;-55
2022/03/27 08:09:52;;;;;;;13.57;4.82;;;;;;;23.23;40.24;103369.63;5208044;28;20951;-54
2022/03/27 08:12:27;;;;;;;8.20;3.88;;;;;;;23.72;39.25;103368.59;5192884;28;22283;-54
2022/03/27 08:14:59;;;;;;;9.95;3.80;;;;;;;24.22;38.75;103379.97;5196876;28;20445;-52
2022/03/27 08:17:34;;;;;;;11.50;3.93;;;;;;;24.16;38.60;103368.03;5205871;28;20470;-55
2022/03/27 08:20:08;;;;;;;9.95;3.38;;;;;;;23.59;39.03;103371.00;5204831;28;20480;-54
2022/03/27 08:22:41;;;;;;;12.02;3.70;;;;;;;23.15;39.23;103372.31;5184232;28;20442;-55
2022/03/27 08:26:55;;;;;;;16.20;4.75;;;;;;;23.02;39.29;103366.63;5187146;28;21773;-53
2022/03/27 08:28:06;;;;;;;14.77;4.50;;;;;;;22.95;39.19;103353.00;5192187;28;20886;-55
2022/03/27 08:30:40;;;;;;;16.25;4.60;;;;;;;22.79;38.95;103370.00;5223453;28;20465;-54
2022/03/27 08:33:17;;;;;;;14.80;4.60;;;;;;;22.79;39.39;103356.53;5225141;28;20411;-54
2022/03/27 08:35:49;;;;;;;14.85;4.22;;;;;;;22.56;39.55;103377.06;5216738;28;20492;-52
2022/03/27 08:38:22;;;;;;;14.57;4.03;;;;;;;22.04;39.77;103372.75;5209244;28;20429;-51
2022/03/27 08:41:00;;;;;;;15.98;5.10;;;;;;;21.64;40.06;103357.31;5197789;28;20880;-53
2022/03/27 08:43:34;;;;;;;16.08;4.55;;;;;;;21.46;40.08;103359.25;5226933;28;20428;-55
2022/03/27 08:46:06;;;;;;;9.52;3.10;;;;;;;21.19;40.36;103351.19;5203729;28;20412;-54
2022/03/27 08:48:45;;;;;;;15.13;4.18;;;;;;;21.09;40.64;103382.72;5220677;28;20425;-53
2022/03/27 08:51:35;;;;;;;12.15;3.90;;;;;;;20.84;40.83;103367.41;5218233;28;20494;-53
2022/03/27 08:54:12;;;;;;;15.98;4.20;;;;;;;20.64;40.83;103362.22;5212103;28;20419;-55
2022/03/27 08:57:08;;;;;;;16.30;4.13;;;;;;;20.79;40.76;103361.66;5201119;28;20513;-54
2022/03/27 08:59:43;;;;;;;12.07;4.00;;;;;;;20.53;41.14;103350.88;5192792;28;20500;-51
2022/03/27 09:02:16;;;;;;;12.52;4.40;;;;;;;19.99;41.73;103373.13;5191070;28;20738;-53
2022/03/27 09:04:51;;;;;;;22.10;4.47;;;;;;;19.40;42.40;103377.03;5206652;28;20425;-50
2022/03/27 09:07:24;;;;;;;13.82;3.50;;;;;;;18.93;42.87;103354.75;5198510;28;20550;-53
2022/03/27 09:09:58;;;;;;;13.60;3.85;;;;;;;18.61;43.21;103374.59;5221614;28;20433;-53
2022/03/27 09:12:33;;;;;;;15.70;4.77;;;;;;;17.94;43.80;103390.44;5232529;28;20411;-51
2022/03/27 09:15:09;;;;;;;16.60;3.97;;;;;;;17.24;44.37;103384.03;5121028;28;28034;-51
2022/03/27 09:18:04;;;;;;;15.25;5.15;;;;;;;17.14;44.21;103383.13;5094401;28;336423;-54
2022/03/27 09:20:42;;;;;;;19.90;4.78;;;;;;;17.04;44.21;103375.06;5197376;28;20407;-53
2022/03/27 09:23:25;;;;;;;17.27;4.55;;;;;;;16.75;44.50;103381.97;5195446;28;20506;-49
2022/03/27 09:26:00;;;;;;;20.83;4.97;;;;;;;16.43;44.51;103374.81;5226973;28;20493;-52
2022/03/27 09:28:36;;;;;;;16.38;4.55;;;;;;;16.60;44.38;103379.63;5200437;28;20432;-54
2022/03/27 09:31:26;;;;;;;16.52;4.25;;;;;;;16.40;44.36;103380.41;5195513;28;20522;-50
2022/03/27 09:34:01;;;;;;;16.35;4.32;;;;;;;16.10;44.63;103378.41;5198969;28;20443;-52
2022/03/27 09:36:42;;;;;;;18.95;5.43;;;;;;;15.83;44.77;103384.16;5203803;28;21012;-50
2022/03/27 09:39:19;;;;;;;16.48;4.88;;;;;;;15.47;44.95;103372.75;5222547;28;20589;-52
2022/03/27 09:41:58;;;;;;;19.95;5.38;;;;;;;15.13;45.15;103364.69;5208391;28;20508;-51
2022/03/27 09:44:34;;;;;;;17.75;5.57;;;;;;;14.93;45.07;103354.75;5214730;28;20399;-52
2022/03/27 09:47:08;;;;;;;16.23;4.88;;;;;;;14.75;45.02;103330.38;5209425;28;20415;-54
2022/03/27 09:49:44;;;;;;;18.17;5.55;;;;;;;15.13;44.75;103369.19;5219044;28;20749;-49
2022/03/27 09:52:20;;;;;;;13.37;4.77;;;;;;;15.16;44.60;103368.94;5206202;28;20417;-54
2022/03/27 09:54:55;;;;;;;19.98;5.03;;;;;;;15.02;44.63;103347.84;5230011;28;20430;-53
2022/03/27 09:57:31;;;;;;;16.95;4.35;;;;;;;15.23;44.44;103371.00;5219485;28;20418;-52
2022/03/27 10:00:22;;;;;;;18.95;5.07;;;;;;;15.30;44.31;103360.75;5211514;28;20800;-51
2022/03/27 10:02:54;;;;;;;20.20;5.13;;;;;;;15.38;44.12;103362.81;5203452;28;20503;-52
2022/03/27 10:05:32;;;;;;;12.75;4.25;;;;;;;15.17;44.18;103366.19;5190261;28;20411;-50
2022/03/27 10:08:08;;;;;;;19.65;5.50;;;;;;;14.91;44.07;103351.34;5200578;28;20500;-54
2022/03/27 10:10:41;;;;;;;15.75;4.25;;;;;;;14.87;44.13;103360.53;5225623;28;20431;-55
2022/03/27 10:13:13;;;;;;;18.02;5.82;;;;;;;14.75;44.17;103360.50;5197125;28;20863;-54
2022/03/27 10:15:46;;;;;;;17.67;5.93;;;;;;;14.78;43.97;103354.09;5212720;28;20487;-54
2022/03/27 10:18:20;;;;;;;16.87;5.30;;;;;;;14.85;43.97;103351.81;5203669;28;20415;-54
2022/03/27 10:20:58;;;;;;;19.77;5.38;;;;;;;14.53;43.98;103323.19;5216201;28;20411;-50
2022/03/27 10:23:33;;;;;;;24.40;5.93;;;;;;;14.68;44.07;103342.44;5200597;28;20882;-53
2022/03/27 10:26:06;;;;;;;14.43;4.57;;;;;;;14.61;44.13;103347.38;5207193;28;20763;-55
2022/03/27 10:28:39;;;;;;;22.77;6.25;;;;;;;14.70;43.88;103346.69;5219577;28;20914;-54
2022/03/27 10:31:12;;;;;;;18.13;5.30;;;;;;;14.87;43.66;103348.09;5218931;28;20424;-55
2022/03/27 10:33:44;;;;;;;21.40;5.63;;;;;;;14.89;43.49;103340.81;5220795;28;20617;-56
2022/03/27 10:36:27;;;;;;;19.42;5.63;;;;;;;14.93;43.42;103341.44;5219326;28;20423;-54
2022/03/27 10:39:09;;;;;;;22.30;5.75;;;;;;;14.89;43.45;103334.66;5221651;28;20406;-54
2022/03/27 10:41:55;;;;;;;26.98;7.45;;;;;;;14.90;43.37;103342.53;5210983;28;20881;-55
2022/03/27 10:44:38;;;;;;;23.95;6.43;;;;;;;14.89;43.32;103316.03;5200045;28;20998;-55
2022/03/27 10:47:16;;;;;;;35.95;7.97;;;;;;;14.92;43.29;103327.28;5179434;28;20510;-53
2022/03/27 10:50:22;;;;;;;33.88;6.82;;;;;;;14.86;43.34;103324.25;5216770;28;20461;-53
2022/03/27 10:53:12;;;;;;;25.65;7.63;;;;;;;14.86;43.44;103308.28;5202344;28;20910;-51
2022/03/27 10:55:52;;;;;;;16.58;4.80;;;;;;;14.88;43.31;103307.19;5192437;28;20500;-51
2022/03/27 10:58:37;;;;;;;24.30;7.85;;;;;;;14.80;42.97;103282.13;5210193;28;20432;-54
2022/03/27 11:01:32;;;;;;;27.52;6.53;;;;;;;15.07;42.84;103311.94;5208237;28;20466;-56
2022/03/27 11:04:10;;;;;;;22.92;5.65;;;;;;;15.30;42.49;103311.97;5193302;28;20409;-56
2022/03/27 11:06:46;;;;;;;24.10;6.10;;;;;;;15.44;42.21;103304.56;5200415;28;20424;-59
2022/03/27 11:09:33;;;;;;;19.00;4.72;;;;;;;15.54;41.98;103327.81;5208450;28;20526;-60
2022/03/27 11:12:27;;;;;;;21.65;4.78;;;;;;;15.53;41.81;103319.00;5207379;28;20473;-59
2022/03/27 11:15:02;;;;;;;16.05;3.55;;;;;;;15.40;41.38;103302.28;5215549;28;20889;-59
2022/03/27 11:17:48;;;;;;;14.55;4.05;;;;;;;15.40;41.03;103310.28;5218905;28;20857;-62
2022/03/27 11:20:55;;;;;;;17.52;4.28;;;;;;;15.57;40.44;103304.44;5192607;28;20893;-60
2022/03/27 11:23:34;;;;;;;20.20;4.80;;;;;;;15.60;40.11;103301.53;5216376;28;20409;-60
2022/03/27 11:26:32;;;;;;;16.35;4.70;;;;;;;15.69;39.91;103297.31;5191969;28;20485;-60
2022/03/27 11:29:22;;;;;;;8.10;2.73;;;;;;;15.65;39.38;103286.03;5212146;28;20408;-61
2022/03/27 11:32:10;;;;;;;15.88;4.95;;;;;;;15.64;38.93;103281.69;5215461;28;20439;-57
2022/03/27 11:35:20;;;;;;;14.40;4.32;;;;;;;15.65;38.76;103291.38;5178012;28;20494;-59
2022/03/27 11:38:24;;;;;;;12.67;4.07;;;;;;;15.53;38.34;103279.03;5183176;28;20434;-61
2022/03/27 11:40:58;;;;;;;15.65;4.80;;;;;;;15.74;38.05;103288.97;5197958;28;21036;-59
2022/03/27 11:43:35;;;;;;;16.15;4.03;;;;;;;15.86;37.79;103282.66;5199510;28;21552;-60
2022/03/27 11:46:10;;;;;;;11.90;3.87;;;;;;;15.32;37.62;103182.22;5193617;28;20411;-60
2022/03/27 11:48:43;;;;;;;18.05;4.47;;;;;;;15.70;37.39;103274.19;5202370;28;20511;-59
2022/03/27 11:51:16;;;;;;;17.05;4.47;;;;;;;15.81;37.21;103284.84;5201848;28;20516;-60
2022/03/27 11:53:48;;;;;;;12.90;4.18;;;;;;;15.88;36.93;103275.38;5189736;28;20514;-60
2022/03/27 11:56:23;;;;;;;18.08;4.68;;;;;;;15.80;36.79;103262.69;5200441;28;20501;-60
2022/03/27 11:59:06;;;;;;;14.32;3.97;;;;;;;15.98;36.62;103265.66;5195179;28;20584;-59
2022/03/27 12:01:41;;;;;;;18.45;3.72;;;;;;;16.05;36.37;103272.19;5197103;28;20470;-59